Terminal Aerodrome Forecast
Issued by NWS

Home | Current Version | Previous Version | Graphics & Text | Print | Product List | Glossary On
Versions: 1 2 3 4 5 6 7 8 9 10 11 12 13 14 15 16 17 18 19 20 21 22 23 24
000
FTUS43 KABR 240004 AAA
TAFMBG
TAF AMD
KMBG 240004Z 2400/2424 06007KT 3SM -SN SCT008 OVC050
     FM242100 35015KT 1SM -SN OVC015
     FM242300 35015KT 3SM -SN OVC020=

USA.gov is the U.S. government's official web portal to all federal, state and local government web resources and services.